Terminal Aerodrome Forecast
Issued by NWS Grand Forks, ND

Home | Current Version | Previous Version | Text Only | Print | Product List | Glossary On
Versions: 1 2 3 4 5 6 7 8 9 10 11 12 13 14 15 16
875
FTUS43 KFGF 182043 AAA
TAFGFK
TAF AMD
KGFK 182043Z 1821/1918 02018G26KT 1SM -SN BLSN BKN010 OVC025
     FM182200 01017G24KT 3SM BLSN SCT015 BKN025
     FM190000 01015KT P6SM BKN030
     FM190200 36012KT P6SM BKN035
     FM190900 01009KT P6SM BKN050=

USA.gov is the U.S. government's official web portal to all federal, state and local government web resources and services.